sensor_id;sensor_type;location;lat;lon;timestamp;pressure;altitude;pressure_sealevel;temperature;humidity
59654;BME280;66556;52.008;5.432;2023-04-25T00:00:48;101042.0;;;22.95;29.27
59654;BME280;66556;52.008;5.432;2023-04-25T00:02:24;101047.0;;;23.03;29.1
59654;BME280;66556;52.008;5.432;2023-04-25T00:04:00;101049.0;;;23.01;29.05
59654;BME280;66556;52.008;5.432;2023-04-25T00:07:13;101051.0;;;23.15;28.75
59654;BME280;66556;52.008;5.432;2023-04-25T00:08:49;101053.0;;;23.07;28.61
59654;BME280;66556;52.008;5.432;2023-04-25T00:10:25;101053.0;;;22.2;30.17
59654;BME280;66556;52.008;5.432;2023-04-25T00:13:38;101056.0;;;22.23;30.09
59654;BME280;66556;52.008;5.432;2023-04-25T00:15:14;101057.0;;;22.84;29.13
59654;BME280;66556;52.008;5.432;2023-04-25T00:16:50;101056.0;;;22.39;29.91
59654;BME280;66556;52.008;5.432;2023-04-25T00:20:03;101055.0;;;22.69;29.68
59654;BME280;66556;52.008;5.432;2023-04-25T00:21:38;101050.0;;;22.99;28.89
59654;BME280;66556;52.008;5.432;2023-04-25T00:23:15;101062.0;;;23.14;28.74
59654;BME280;66556;52.008;5.432;2023-04-25T00:24:52;101066.0;;;22.76;29.64
59654;BME280;66556;52.008;5.432;2023-04-25T00:28:05;101068.0;;;22.88;29.56
59654;BME280;66556;52.008;5.432;2023-04-25T00:29:41;101068.0;;;23.11;29.14
59654;BME280;66556;52.008;5.432;2023-04-25T00:31:17;101074.0;;;23.17;29.1
59654;BME280;66556;52.008;5.432;2023-04-25T00:34:29;101075.0;;;22.74;29.76
59654;BME280;66556;52.008;5.432;2023-04-25T00:36:07;101080.0;;;22.5;29.99
59654;BME280;66556;52.008;5.432;2023-04-25T00:37:43;101082.0;;;22.54;30.04
59654;BME280;66556;52.008;5.432;2023-04-25T00:40:56;101081.0;;;22.52;30.41
59654;BME280;66556;52.008;5.432;2023-04-25T00:42:32;101078.0;;;22.71;29.88
59654;BME280;66556;52.008;5.432;2023-04-25T00:44:09;101076.0;;;22.14;30.95
59654;BME280;66556;52.008;5.432;2023-04-25T00:47:24;101075.0;;;22.31;30.82
59654;BME280;66556;52.008;5.432;2023-04-25T00:49:00;101076.0;;;22.53;30.45
59654;BME280;66556;52.008;5.432;2023-04-25T00:50:37;101075.0;;;22.45;30.37
59654;BME280;66556;52.008;5.432;2023-04-25T00:52:14;101066.0;;;22.57;30.1
59654;BME280;66556;52.008;5.432;2023-04-25T00:55:27;101072.0;;;22.77;29.81
59654;BME280;66556;52.008;5.432;2023-04-25T00:57:03;101071.0;;;22.52;30.0
59654;BME280;66556;52.008;5.432;2023-04-25T00:58:40;101070.0;;;22.7;29.61
59654;BME280;66556;52.008;5.432;2023-04-25T01:01:53;101071.0;;;22.6;29.68
59654;BME280;66556;52.008;5.432;2023-04-25T01:03:32;101064.0;;;22.72;29.16
59654;BME280;66556;52.008;5.432;2023-04-25T01:05:09;101067.0;;;22.58;29.09
59654;BME280;66556;52.008;5.432;2023-04-25T01:06:45;101067.0;;;22.66;28.88
59654;BME280;66556;52.008;5.432;2023-04-25T01:09:59;101073.0;;;22.78;28.49
59654;BME280;66556;52.008;5.432;2023-04-25T01:11:35;101074.0;;;22.71;28.87
59654;BME280;66556;52.008;5.432;2023-04-25T01:13:12;101073.0;;;22.8;28.35
59654;BME280;66556;52.008;5.432;2023-04-25T01:16:24;101074.0;;;22.85;27.96
59654;BME280;66556;52.008;5.432;2023-04-25T01:18:00;101075.0;;;22.91;28.1
59654;BME280;66556;52.008;5.432;2023-04-25T01:19:36;101077.0;;;22.61;28.35
59654;BME280;66556;52.008;5.432;2023-04-25T01:22:50;101078.0;;;22.54;28.21
59654;BME280;66556;52.008;5.432;2023-04-25T01:24:26;101083.0;;;22.65;28.42
59654;BME280;66556;52.008;5.432;2023-04-25T01:26:03;101084.0;;;22.65;28.11
59654;BME280;66556;52.008;5.432;2023-04-25T01:27:42;101084.0;;;22.76;28.03
59654;BME280;66556;52.008;5.432;2023-04-25T01:30:56;101080.0;;;22.62;28.25
59654;BME280;66556;52.008;5.432;2023-04-25T01:32:33;101080.0;;;22.71;27.93
59654;BME280;66556;52.008;5.432;2023-04-25T01:34:09;101084.0;;;22.04;28.89
59654;BME280;66556;52.008;5.432;2023-04-25T01:37:22;101086.0;;;22.37;28.55
59654;BME280;66556;52.008;5.432;2023-04-25T01:38:58;101093.0;;;22.28;28.3
59654;BME280;66556;52.008;5.432;2023-04-25T01:40:38;101095.0;;;22.3;28.46
59654;BME280;66556;52.008;5.432;2023-04-25T01:42:16;101094.0;;;22.61;27.89
59654;BME280;66556;52.008;5.432;2023-04-25T01:45:30;101099.0;;;22.84;27.68
59654;BME280;66556;52.008;5.432;2023-04-25T01:47:06;101102.0;;;22.52;27.9
59654;BME280;66556;52.008;5.432;2023-04-25T01:48:42;101103.0;;;22.32;28.12
59654;BME280;66556;52.008;5.432;2023-04-25T01:51:55;101113.0;;;21.89;28.44
59654;BME280;66556;52.008;5.432;2023-04-25T01:53:31;101110.0;;;21.89;28.81
59654;BME280;66556;52.008;5.432;2023-04-25T01:55:08;101114.0;;;21.95;28.85
59654;BME280;66556;52.008;5.432;2023-04-25T01:58:26;101118.0;;;22.06;28.58
59654;BME280;66556;52.008;5.432;2023-04-25T02:00:05;101115.0;;;21.99;28.63
59654;BME280;66556;52.008;5.432;2023-04-25T02:01:42;101113.0;;;21.77;28.91
59654;BME280;66556;52.008;5.432;2023-04-25T02:03:18;101116.0;;;21.69;28.76
59654;BME280;66556;52.008;5.432;2023-04-25T02:06:31;101118.0;;;21.81;28.63
59654;BME280;66556;52.008;5.432;2023-04-25T02:08:08;101122.0;;;22.18;27.94
59654;BME280;66556;52.008;5.432;2023-04-25T02:09:45;101122.0;;;21.6;28.89
59654;BME280;66556;52.008;5.432;2023-04-25T02:12:57;101122.0;;;21.94;28.2
59654;BME280;66556;52.008;5.432;2023-04-25T02:14:33;101130.0;;;21.5;29.11
59654;BME280;66556;52.008;5.432;2023-04-25T02:16:09;101124.0;;;21.63;28.72
59654;BME280;66556;52.008;5.432;2023-04-25T02:19:22;101124.0;;;21.72;28.51
59654;BME280;66556;52.008;5.432;2023-04-25T02:20:58;101124.0;;;21.29;28.89
59654;BME280;66556;52.008;5.432;2023-04-25T02:22:35;101127.0;;;21.32;28.79
59654;BME280;66556;52.008;5.432;2023-04-25T02:24:11;101121.0;;;21.14;28.76
59654;BME280;66556;52.008;5.432;2023-04-25T02:27:24;101122.0;;;21.1;28.71
59654;BME280;66556;52.008;5.432;2023-04-25T02:29:01;101122.0;;;21.08;28.81
59654;BME280;66556;52.008;5.432;2023-04-25T02:30:37;101121.0;;;20.99;28.88
59654;BME280;66556;52.008;5.432;2023-04-25T02:33:49;101120.0;;;20.55;29.58
59654;BME280;66556;52.008;5.432;2023-04-25T02:35:26;101123.0;;;21.22;28.41
59654;BME280;66556;52.008;5.432;2023-04-25T02:37:02;101122.0;;;20.72;28.78
59654;BME280;66556;52.008;5.432;2023-04-25T02:40:15;101130.0;;;21.02;28.38
59654;BME280;66556;52.008;5.432;2023-04-25T02:41:52;101132.0;;;20.63;28.9
59654;BME280;66556;52.008;5.432;2023-04-25T02:43:28;101130.0;;;20.71;28.81
59654;BME280;66556;52.008;5.432;2023-04-25T02:45:04;101131.0;;;20.62;29.04
59654;BME280;66556;52.008;5.432;2023-04-25T02:48:17;101128.0;;;21.13;28.26
59654;BME280;66556;52.008;5.432;2023-04-25T02:49:53;101127.0;;;20.41;29.02
59654;BME280;66556;52.008;5.432;2023-04-25T02:51:29;101130.0;;;20.36;29.07
59654;BME280;66556;52.008;5.432;2023-04-25T02:54:41;101132.0;;;20.37;29.08
59654;BME280;66556;52.008;5.432;2023-04-25T02:56:17;101130.0;;;20.31;29.04
59654;BME280;66556;52.008;5.432;2023-04-25T02:57:54;101128.0;;;20.32;29.19
59654;BME280;66556;52.008;5.432;2023-04-25T03:01:06;101126.0;;;20.36;29.05
59654;BME280;66556;52.008;5.432;2023-04-25T03:02:42;101125.0;;;19.97;29.7
59654;BME280;66556;52.008;5.432;2023-04-25T03:04:18;101128.0;;;19.7;30.36
59654;BME280;66556;52.008;5.432;2023-04-25T03:07:30;101122.0;;;20.28;29.13
59654;BME280;66556;52.008;5.432;2023-04-25T03:09:06;101128.0;;;20.37;29.04
59654;BME280;66556;52.008;5.432;2023-04-25T03:10:43;101128.0;;;20.06;29.61
59654;BME280;66556;52.008;5.432;2023-04-25T03:12:20;101130.0;;;19.81;30.02
59654;BME280;66556;52.008;5.432;2023-04-25T03:15:32;101133.0;;;19.59;30.61
59654;BME280;66556;52.008;5.432;2023-04-25T03:17:08;101136.0;;;19.81;30.62
59654;BME280;66556;52.008;5.432;2023-04-25T03:18:44;101143.0;;;19.02;31.94
59654;BME280;66556;52.008;5.432;2023-04-25T03:21:57;101146.0;;;19.25;31.71
59654;BME280;66556;52.008;5.432;2023-04-25T03:23:33;101142.0;;;19.47;31.07
59654;BME280;66556;52.008;5.432;2023-04-25T03:25:09;101147.0;;;19.86;30.72
59654;BME280;66556;52.008;5.432;2023-04-25T03:28:22;101148.0;;;20.0;30.47
59654;BME280;66556;52.008;5.432;2023-04-25T03:29:58;101152.0;;;19.79;30.8
59654;BME280;66556;52.008;5.432;2023-04-25T03:31:34;101155.0;;;19.98;30.35
59654;BME280;66556;52.008;5.432;2023-04-25T03:33:10;101152.0;;;19.02;31.7
59654;BME280;66556;52.008;5.432;2023-04-25T03:36:23;101150.0;;;18.96;31.58
59654;BME280;66556;52.008;5.432;2023-04-25T03:37:59;101147.0;;;20.25;30.03
59654;BME280;66556;52.008;5.432;2023-04-25T03:39:35;101147.0;;;20.09;30.3
59654;BME280;66556;52.008;5.432;2023-04-25T03:42:48;101147.0;;;20.51;29.46
59654;BME280;66556;52.008;5.432;2023-04-25T03:44:24;101147.0;;;20.58;29.25
59654;BME280;66556;52.008;5.432;2023-04-25T03:46:01;101148.0;;;20.46;29.57
59654;BME280;66556;52.008;5.432;2023-04-25T03:49:13;101150.0;;;20.57;29.69
59654;BME280;66556;52.008;5.432;2023-04-25T03:50:49;101155.0;;;20.39;30.0
59654;BME280;66556;52.008;5.432;2023-04-25T03:52:25;101156.0;;;20.25;30.68
59654;BME280;66556;52.008;5.432;2023-04-25T03:55:37;101157.0;;;20.25;31.02
59654;BME280;66556;52.008;5.432;2023-04-25T03:57:14;101158.0;;;20.34;30.95
59654;BME280;66556;52.008;5.432;2023-04-25T03:58:49;101163.0;;;20.59;30.64
59654;BME280;66556;52.008;5.432;2023-04-25T04:00:26;101160.0;;;20.72;30.55
59654;BME280;66556;52.008;5.432;2023-04-25T04:03:38;101162.0;;;20.73;30.71
59654;BME280;66556;52.008;5.432;2023-04-25T04:05:14;101166.0;;;20.93;30.65
59654;BME280;66556;52.008;5.432;2023-04-25T04:06:50;101169.0;;;21.1;30.13
59654;BME280;66556;52.008;5.432;2023-04-25T04:10:02;101173.0;;;20.89;30.34
59654;BME280;66556;52.008;5.432;2023-04-25T04:11:39;101170.0;;;21.07;30.37
59654;BME280;66556;52.008;5.432;2023-04-25T04:13:14;101171.0;;;20.98;30.47
59654;BME280;66556;52.008;5.432;2023-04-25T04:16:27;101173.0;;;21.11;30.32
59654;BME280;66556;52.008;5.432;2023-04-25T04:18:03;101170.0;;;21.05;30.51
59654;BME280;66556;52.008;5.432;2023-04-25T04:19:39;101170.0;;;21.04;30.56
59654;BME280;66556;52.008;5.432;2023-04-25T04:21:15;101173.0;;;21.04;30.53
59654;BME280;66556;52.008;5.432;2023-04-25T04:24:27;101176.0;;;21.08;30.56
59654;BME280;66556;52.008;5.432;2023-04-25T04:26:03;101181.0;;;21.01;30.61
59654;BME280;66556;52.008;5.432;2023-04-25T04:27:40;101178.0;;;21.21;30.29
59654;BME280;66556;52.008;5.432;2023-04-25T04:30:53;101184.0;;;21.32;30.23
59654;BME280;66556;52.008;5.432;2023-04-25T04:32:29;101185.0;;;21.36;30.01
59654;BME280;66556;52.008;5.432;2023-04-25T04:34:05;101185.0;;;21.45;29.95
59654;BME280;66556;52.008;5.432;2023-04-25T04:37:18;101189.0;;;21.47;30.12
59654;BME280;66556;52.008;5.432;2023-04-25T04:38:53;101197.0;;;20.16;31.49
59654;BME280;66556;52.008;5.432;2023-04-25T04:40:30;101198.0;;;21.24;30.11
59654;BME280;66556;52.008;5.432;2023-04-25T04:43:43;101201.0;;;21.22;30.23
59654;BME280;66556;52.008;5.432;2023-04-25T04:45:19;101198.0;;;21.47;29.84
59654;BME280;66556;52.008;5.432;2023-04-25T04:46:55;101200.0;;;21.69;29.52
59654;BME280;66556;52.008;5.432;2023-04-25T04:48:32;101200.0;;;21.57;29.56
59654;BME280;66556;52.008;5.432;2023-04-25T04:51:46;101205.0;;;21.61;29.57
59654;BME280;66556;52.008;5.432;2023-04-25T04:53:22;101207.0;;;21.75;29.33
59654;BME280;66556;52.008;5.432;2023-04-25T04:54:58;101208.0;;;21.86;29.33
59654;BME280;66556;52.008;5.432;2023-04-25T04:58:11;101209.0;;;21.95;29.27
59654;BME280;66556;52.008;5.432;2023-04-25T04:59:47;101208.0;;;21.79;29.54
59654;BME280;66556;52.008;5.432;2023-04-25T05:01:23;101210.0;;;21.88;29.25
59654;BME280;66556;52.008;5.432;2023-04-25T05:04:36;101213.0;;;21.97;29.12
59654;BME280;66556;52.008;5.432;2023-04-25T05:06:12;101214.0;;;22.03;29.07
59654;BME280;66556;52.008;5.432;2023-04-25T05:07:49;101215.0;;;22.1;28.97
59654;BME280;66556;52.008;5.432;2023-04-25T05:09:25;101212.0;;;22.37;28.95
59654;BME280;66556;52.008;5.432;2023-04-25T05:12:38;101217.0;;;22.33;28.7
59654;BME280;66556;52.008;5.432;2023-04-25T05:14:14;101221.0;;;22.51;28.35
59654;BME280;66556;52.008;5.432;2023-04-25T05:19:03;101223.0;;;22.5;28.4
59654;BME280;66556;52.008;5.432;2023-04-25T05:20:39;101228.0;;;22.52;28.24
59654;BME280;66556;52.008;5.432;2023-04-25T05:22:15;101233.0;;;22.61;28.14
59654;BME280;66556;52.008;5.432;2023-04-25T05:25:27;101237.0;;;22.43;28.21
59654;BME280;66556;52.008;5.432;2023-04-25T05:27:03;101241.0;;;22.51;28.43
59654;BME280;66556;52.008;5.432;2023-04-25T05:28:40;101245.0;;;22.65;28.17
59654;BME280;66556;52.008;5.432;2023-04-25T05:31:52;101245.0;;;22.51;28.3
59654;BME280;66556;52.008;5.432;2023-04-25T05:33:28;101252.0;;;22.39;28.75
59654;BME280;66556;52.008;5.432;2023-04-25T05:35:05;101248.0;;;22.54;28.51
59654;BME280;66556;52.008;5.432;2023-04-25T05:36:41;101253.0;;;22.78;28.53
59654;BME280;66556;52.008;5.432;2023-04-25T05:39:53;101259.0;;;22.95;28.14
59654;BME280;66556;52.008;5.432;2023-04-25T05:41:29;101255.0;;;23.18;28.03
59654;BME280;66556;52.008;5.432;2023-04-25T05:43:06;101256.0;;;23.01;28.12
59654;BME280;66556;52.008;5.432;2023-04-25T05:46:18;101257.0;;;23.24;28.07
59654;BME280;66556;52.008;5.432;2023-04-25T05:47:54;101260.0;;;23.05;28.24
59654;BME280;66556;52.008;5.432;2023-04-25T05:49:30;101267.0;;;23.26;27.89
59654;BME280;66556;52.008;5.432;2023-04-25T05:52:44;101267.0;;;23.48;27.23
59654;BME280;66556;52.008;5.432;2023-04-25T05:54:20;101270.0;;;23.97;27.08
59654;BME280;66556;52.008;5.432;2023-04-25T05:55:55;101269.0;;;23.61;27.0
59654;BME280;66556;52.008;5.432;2023-04-25T05:57:31;101270.0;;;23.76;27.1
59654;BME280;66556;52.008;5.432;2023-04-25T06:00:43;101272.0;;;23.99;26.48
59654;BME280;66556;52.008;5.432;2023-04-25T06:02:20;101273.0;;;23.86;26.22
59654;BME280;66556;52.008;5.432;2023-04-25T06:03:57;101275.0;;;23.79;26.21
59654;BME280;66556;52.008;5.432;2023-04-25T06:07:09;101276.0;;;23.53;26.84
59654;BME280;66556;52.008;5.432;2023-04-25T06:08:45;101277.0;;;23.77;26.29
59654;BME280;66556;52.008;5.432;2023-04-25T06:10:21;101280.0;;;23.88;26.32
59654;BME280;66556;52.008;5.432;2023-04-25T06:13:33;101283.0;;;23.8;26.28
59654;BME280;66556;52.008;5.432;2023-04-25T06:15:10;101287.0;;;23.82;26.32
59654;BME280;66556;52.008;5.432;2023-04-25T06:16:46;101288.0;;;23.76;26.26
59654;BME280;66556;52.008;5.432;2023-04-25T06:19:58;101289.0;;;24.05;26.18
59654;BME280;66556;52.008;5.432;2023-04-25T06:21:34;101287.0;;;23.84;25.91
59654;BME280;66556;52.008;5.432;2023-04-25T06:23:10;101296.0;;;24.0;25.89
59654;BME280;66556;52.008;5.432;2023-04-25T06:24:47;101300.0;;;23.8;25.87
59654;BME280;66556;52.008;5.432;2023-04-25T06:28:00;101307.0;;;23.99;25.79
59654;BME280;66556;52.008;5.432;2023-04-25T06:29:36;101307.0;;;24.06;25.95
59654;BME280;66556;52.008;5.432;2023-04-25T06:31:12;101305.0;;;24.17;25.99
59654;BME280;66556;52.008;5.432;2023-04-25T06:34:24;101305.0;;;24.24;25.37
59654;BME280;66556;52.008;5.432;2023-04-25T06:36:00;101303.0;;;24.28;25.79
59654;BME280;66556;52.008;5.432;2023-04-25T06:37:36;101305.0;;;24.5;25.1
59654;BME280;66556;52.008;5.432;2023-04-25T06:40:49;101308.0;;;24.71;24.95
59654;BME280;66556;52.008;5.432;2023-04-25T06:42:25;101307.0;;;24.33;25.08
59654;BME280;66556;52.008;5.432;2023-04-25T06:44:01;101303.0;;;24.51;24.6
59654;BME280;66556;52.008;5.432;2023-04-25T06:45:37;101308.0;;;24.73;24.41
59654;BME280;66556;52.008;5.432;2023-04-25T06:48:51;101307.0;;;24.9;24.52
59654;BME280;66556;52.008;5.432;2023-04-25T06:50:27;101311.0;;;24.75;24.96
59654;BME280;66556;52.008;5.432;2023-04-25T06:52:03;101314.0;;;24.7;25.22
59654;BME280;66556;52.008;5.432;2023-04-25T06:55:16;101316.0;;;25.18;25.24
59654;BME280;66556;52.008;5.432;2023-04-25T06:56:52;101315.0;;;25.71;24.58
59654;BME280;66556;52.008;5.432;2023-04-25T06:58:28;101320.0;;;26.0;24.18
59654;BME280;66556;52.008;5.432;2023-04-25T07:01:44;101328.0;;;26.44;23.62
59654;BME280;66556;52.008;5.432;2023-04-25T07:03:20;101330.0;;;26.82;23.85
59654;BME280;66556;52.008;5.432;2023-04-25T07:04:57;101330.0;;;26.95;23.14
59654;BME280;66556;52.008;5.432;2023-04-25T07:06:33;101327.0;;;26.79;22.47
59654;BME280;66556;52.008;5.432;2023-04-25T07:09:45;101338.0;;;26.75;23.04
59654;BME280;66556;52.008;5.432;2023-04-25T07:11:21;101331.0;;;26.62;21.99
59654;BME280;66556;52.008;5.432;2023-04-25T07:12:57;101336.0;;;26.89;22.14
59654;BME280;66556;52.008;5.432;2023-04-25T07:16:10;101333.0;;;27.39;22.47
59654;BME280;66556;52.008;5.432;2023-04-25T07:17:46;101343.0;;;27.65;21.69
59654;BME280;66556;52.008;5.432;2023-04-25T07:19:22;101343.0;;;27.35;21.31
59654;BME280;66556;52.008;5.432;2023-04-25T07:22:34;101348.0;;;26.97;22.19
59654;BME280;66556;52.008;5.432;2023-04-25T07:24:10;101351.0;;;27.56;21.27
59654;BME280;66556;52.008;5.432;2023-04-25T07:25:46;101352.0;;;27.61;21.66
59654;BME280;66556;52.008;5.432;2023-04-25T07:28:59;101351.0;;;27.08;21.4
59654;BME280;66556;52.008;5.432;2023-04-25T07:30:35;101358.0;;;27.98;22.88
59654;BME280;66556;52.008;5.432;2023-04-25T07:32:11;101352.0;;;28.13;21.09
59654;BME280;66556;52.008;5.432;2023-04-25T07:33:47;101357.0;;;28.39;21.35
59654;BME280;66556;52.008;5.432;2023-04-25T07:36:59;101358.0;;;28.29;20.28
59654;BME280;66556;52.008;5.432;2023-04-25T07:38:35;101358.0;;;28.21;20.18
59654;BME280;66556;52.008;5.432;2023-04-25T07:40:12;101363.0;;;28.14;21.0
59654;BME280;66556;52.008;5.432;2023-04-25T07:43:25;101369.0;;;28.41;21.22
59654;BME280;66556;52.008;5.432;2023-04-25T07:45:01;101370.0;;;28.52;21.01
59654;BME280;66556;52.008;5.432;2023-04-25T07:46:37;101368.0;;;28.78;21.01
59654;BME280;66556;52.008;5.432;2023-04-25T07:49:53;101366.0;;;28.42;18.09
59654;BME280;66556;52.008;5.432;2023-04-25T07:51:29;101366.0;;;28.6;19.93
59654;BME280;66556;52.008;5.432;2023-04-25T07:53:05;101367.0;;;28.11;19.02
59654;BME280;66556;52.008;5.432;2023-04-25T07:54:42;101374.0;;;28.48;19.28
59654;BME280;66556;52.008;5.432;2023-04-25T07:57:54;101370.0;;;28.18;19.27
59654;BME280;66556;52.008;5.432;2023-04-25T07:59:30;101368.0;;;27.89;18.39
59654;BME280;66556;52.008;5.432;2023-04-25T08:01:06;101371.0;;;27.94;18.41
59654;BME280;66556;52.008;5.432;2023-04-25T08:04:18;101380.0;;;27.68;19.25
59654;BME280;66556;52.008;5.432;2023-04-25T08:05:55;101380.0;;;27.61;19.02
59654;BME280;66556;52.008;5.432;2023-04-25T08:07:31;101385.0;;;27.29;19.27
59654;BME280;66556;52.008;5.432;2023-04-25T08:10:43;101388.0;;;27.29;19.61
59654;BME280;66556;52.008;5.432;2023-04-25T08:12:19;101388.0;;;26.48;19.63
59654;BME280;66556;52.008;5.432;2023-04-25T08:13:55;101396.0;;;26.76;20.34
59654;BME280;66556;52.008;5.432;2023-04-25T08:17:07;101401.0;;;26.67;20.0
59654;BME280;66556;52.008;5.432;2023-04-25T08:18:44;101399.0;;;26.83;20.39
59654;BME280;66556;52.008;5.432;2023-04-25T08:20:21;101401.0;;;26.18;20.45
59654;BME280;66556;52.008;5.432;2023-04-25T08:21:57;101406.0;;;27.21;19.81
59654;BME280;66556;52.008;5.432;2023-04-25T08:25:09;101407.0;;;27.43;19.78
59654;BME280;66556;52.008;5.432;2023-04-25T08:26:45;101405.0;;;28.17;19.14
59654;BME280;66556;52.008;5.432;2023-04-25T08:28:21;101406.0;;;27.67;18.86
59654;BME280;66556;52.008;5.432;2023-04-25T08:31:34;101408.0;;;27.93;19.0
59654;BME280;66556;52.008;5.432;2023-04-25T08:33:10;101413.0;;;28.27;19.7
59654;BME280;66556;52.008;5.432;2023-04-25T08:34:46;101420.0;;;28.87;19.77
59654;BME280;66556;52.008;5.432;2023-04-25T08:37:58;101413.0;;;29.0;19.36
59654;BME280;66556;52.008;5.432;2023-04-25T08:39:34;101412.0;;;29.66;18.53
59654;BME280;66556;52.008;5.432;2023-04-25T08:41:11;101413.0;;;30.4;18.14
59654;BME280;66556;52.008;5.432;2023-04-25T08:42:48;101414.0;;;30.3;17.18
59654;BME280;66556;52.008;5.432;2023-04-25T08:46:02;101424.0;;;29.98;17.41
59654;BME280;66556;52.008;5.432;2023-04-25T08:47:38;101425.0;;;30.49;17.16
59654;BME280;66556;52.008;5.432;2023-04-25T08:49:16;101423.0;;;29.94;16.63
59654;BME280;66556;52.008;5.432;2023-04-25T08:52:36;101427.0;;;30.57;16.7
59654;BME280;66556;52.008;5.432;2023-04-25T08:54:13;101432.0;;;30.26;17.11
59654;BME280;66556;52.008;5.432;2023-04-25T08:55:52;101438.0;;;28.47;17.22
59654;BME280;66556;52.008;5.432;2023-04-25T08:57:31;101450.0;;;28.94;17.86
59654;BME280;66556;52.008;5.432;2023-04-25T09:00:43;101453.0;;;28.76;18.78
59654;BME280;66556;52.008;5.432;2023-04-25T09:02:21;101458.0;;;28.62;18.45
59654;BME280;66556;52.008;5.432;2023-04-25T09:03:57;101453.0;;;28.99;18.27
59654;BME280;66556;52.008;5.432;2023-04-25T09:07:11;101464.0;;;28.39;18.34
59654;BME280;66556;52.008;5.432;2023-04-25T09:08:50;101458.0;;;29.4;17.55
59654;BME280;66556;52.008;5.432;2023-04-25T09:10:26;101459.0;;;29.47;17.11
59654;BME280;66556;52.008;5.432;2023-04-25T09:12:03;101459.0;;;28.85;16.47
59654;BME280;66556;52.008;5.432;2023-04-25T09:15:16;101473.0;;;28.72;17.52
59654;BME280;66556;52.008;5.432;2023-04-25T09:17:01;101480.0;;;28.1;17.7
59654;BME280;66556;52.008;5.432;2023-04-25T09:18:37;101482.0;;;27.0;17.55
59654;BME280;66556;52.008;5.432;2023-04-25T09:21:50;101486.0;;;26.88;17.68
59654;BME280;66556;52.008;5.432;2023-04-25T09:23:27;101490.0;;;26.35;18.18
59654;BME280;66556;52.008;5.432;2023-04-25T09:25:07;101488.0;;;26.79;18.37
59654;BME280;66556;52.008;5.432;2023-04-25T09:26:44;101493.0;;;27.22;18.16
59654;BME280;66556;52.008;5.432;2023-04-25T09:30:00;101494.0;;;27.05;17.95
59654;BME280;66556;52.008;5.432;2023-04-25T09:31:36;101494.0;;;27.32;18.25
59654;BME280;66556;52.008;5.432;2023-04-25T09:33:12;101495.0;;;28.26;19.63
59654;BME280;66556;52.008;5.432;2023-04-25T09:36:29;101499.0;;;28.47;17.7
59654;BME280;66556;52.008;5.432;2023-04-25T09:38:08;101494.0;;;28.93;17.81
59654;BME280;66556;52.008;5.432;2023-04-25T09:39:44;101496.0;;;28.34;16.7
59654;BME280;66556;52.008;5.432;2023-04-25T09:41:23;101491.0;;;27.76;17.5
59654;BME280;66556;52.008;5.432;2023-04-25T09:44:36;101503.0;;;27.95;17.45
59654;BME280;66556;52.008;5.432;2023-04-25T09:46:12;101505.0;;;28.39;18.48
59654;BME280;66556;52.008;5.432;2023-04-25T09:47:49;101512.0;;;29.29;17.7
59654;BME280;66556;52.008;5.432;2023-04-25T09:51:06;101508.0;;;29.63;18.71
59654;BME280;66556;52.008;5.432;2023-04-25T09:52:43;101505.0;;;30.47;17.75
59654;BME280;66556;52.008;5.432;2023-04-25T09:54:19;101497.0;;;30.58;17.45
59654;BME280;66556;52.008;5.432;2023-04-25T09:57:32;101511.0;;;29.97;16.87
59654;BME280;66556;52.008;5.432;2023-04-25T09:59:09;101505.0;;;28.37;16.72
59654;BME280;66556;52.008;5.432;2023-04-25T10:00:47;101510.0;;;27.37;17.53
59654;BME280;66556;52.008;5.432;2023-04-25T10:02:26;101502.0;;;27.09;18.14
59654;BME280;66556;52.008;5.432;2023-04-25T10:05:43;101516.0;;;27.72;17.82
59654;BME280;66556;52.008;5.432;2023-04-25T10:07:20;101520.0;;;27.87;18.29
59654;BME280;66556;52.008;5.432;2023-04-25T10:08:58;101524.0;;;28.18;18.0
59654;BME280;66556;52.008;5.432;2023-04-25T10:12:13;101527.0;;;27.31;18.79
59654;BME280;66556;52.008;5.432;2023-04-25T10:13:50;101527.0;;;26.57;19.7
59654;BME280;66556;52.008;5.432;2023-04-25T10:15:26;101528.0;;;26.35;20.31
59654;BME280;66556;52.008;5.432;2023-04-25T10:17:03;101533.0;;;26.76;20.45
59654;BME280;66556;52.008;5.432;2023-04-25T10:20:15;101533.0;;;26.43;20.38
59654;BME280;66556;52.008;5.432;2023-04-25T10:21:52;101540.0;;;26.41;20.62
59654;BME280;66556;52.008;5.432;2023-04-25T10:23:34;101537.0;;;26.34;20.51
59654;BME280;66556;52.008;5.432;2023-04-25T10:26:49;101541.0;;;26.51;20.2
59654;BME280;66556;52.008;5.432;2023-04-25T10:28:26;101541.0;;;26.81;20.14
59654;BME280;66556;52.008;5.432;2023-04-25T10:30:03;101538.0;;;27.08;19.57
59654;BME280;66556;52.008;5.432;2023-04-25T10:31:46;101538.0;;;26.68;19.62
59654;BME280;66556;52.008;5.432;2023-04-25T10:35:13;101543.0;;;26.13;20.11
59654;BME280;66556;52.008;5.432;2023-04-25T10:36:50;101536.0;;;27.13;19.43
59654;BME280;66556;52.008;5.432;2023-04-25T10:38:27;101541.0;;;27.8;19.68
59654;BME280;66556;52.008;5.432;2023-04-25T10:40:08;101542.0;;;27.35;19.06
59654;BME280;66556;52.008;5.432;2023-04-25T10:43:39;101541.0;;;28.01;19.95
59654;BME280;66556;52.008;5.432;2023-04-25T10:45:15;101543.0;;;27.74;19.39
59654;BME280;66556;52.008;5.432;2023-04-25T10:46:51;101540.0;;;27.91;19.36
59654;BME280;66556;52.008;5.432;2023-04-25T10:48:28;101544.0;;;27.81;18.43
59654;BME280;66556;52.008;5.432;2023-04-25T10:51:43;101547.0;;;27.69;19.29
59654;BME280;66556;52.008;5.432;2023-04-25T10:53:24;101551.0;;;27.95;19.45
59654;BME280;66556;52.008;5.432;2023-04-25T10:55:02;101550.0;;;27.7;18.68
59654;BME280;66556;52.008;5.432;2023-04-25T10:56:41;101545.0;;;28.06;18.75
59654;BME280;66556;52.008;5.432;2023-04-25T11:00:01;101558.0;;;28.28;19.23
59654;BME280;66556;52.008;5.432;2023-04-25T11:01:42;101555.0;;;27.81;18.47
59654;BME280;66556;52.008;5.432;2023-04-25T11:03:21;101561.0;;;28.0;18.45
59654;BME280;66556;52.008;5.432;2023-04-25T11:06:48;101559.0;;;28.28;18.0
59654;BME280;66556;52.008;5.432;2023-04-25T11:08:48;101555.0;;;28.63;18.32